Search for airport 
image banner adimage banner adimage banner ad
image banner ad

KJST - John Murtha Johnstown-Cambria Co

Located in Johnstown, United States

ICAO - JST, IATA - JST

Data provided by Airmate  

General information

Coordinates: N40°18'56" W78°50'5"
Elevation is 2284 feet MSL.
Magnetic variation is -10° East
View others Airports in Pennsylvania

Operational data

Special qualification required
Current time UTC:
Current local time:
Weather
METAR: KJST 071254Z AUTO 16006KT 10SM BKN060 OVC075 08/01 A2985 RMK AO2 SLP116 T00830011
TAF: KJST 071127Z 0712/0812 18007KT P6SM BKN035 OVC100 FM071300 20005KT P6SM -RA BKN035 OVC070 FM071700 27008KT 4SM -RA BR OVC015 FM080000 28007KT P6SM BKN035 FM080800 29008G15KT 5SM -SHRA OVC009
View NOTAMs / SUP AIP / TFR affecting this airport [VIEW]
Communications frequencies: [VIEW]

Runways:

RWY identifierQFULength (ft)Width (ft)SurfaceLDA (ft)
0539°4387100ASPH4386
23219°4387100ASPH4386
15144°7004150CONC7003
33324°7004150CONC7003

Airport contact information

Address: Johnstown United States

Other aviation service providers

Flight schools

Nulton Aviation Services

Nulton Aviation Services
info@mttavn.com+1(814)361-3500

Satellite view of KJST